Time;durP1;ratioP1;P1;durP2;ratioP2;P2;SDS_P1;SDS_P2;PMS_P1;PMS_P2;Temp;Humidity;BMP_temperature;BMP_pressure;BME280_temperature;BME280_humidity;BME280_pressure;Samples;Min_cycle;Max_cycle;Signal;HPM_P1;HPM_P2
2023/11/07 00:01:37;;;;;;;;;;;;;;;25.18;34.15;100560.88;4216466;28;19930;-58
2023/11/07 00:03:39;;;;;;;;;;;;;;;25.19;34.24;100550.97;4216168;28;19925;-58
2023/11/07 00:05:41;;;;;;;;;;;;;;;25.20;33.98;100555.34;4215968;28;19928;-57
2023/11/07 00:07:42;;;;;;;;;;;;;;;25.22;34.11;100557.91;4216174;28;20366;-57
2023/11/07 00:09:44;;;;;;;;;;;;;;;25.23;34.02;100560.41;4216266;28;20040;-57
2023/11/07 00:11:46;;;;;;;;;;;;;;;25.22;34.10;100556.03;4216321;28;20005;-57
2023/11/07 00:13:47;;;;;;;;;;;;;;;25.23;34.20;100556.91;4216151;28;19924;-57
2023/11/07 00:15:50;;;;;;;;;;;;;;;25.24;34.10;100553.19;4216268;28;20243;-57
2023/11/07 00:17:51;;;;;;;;;;;;;;;25.22;34.11;100552.50;4216066;28;20031;-56
2023/11/07 00:19:56;;;;;;;;;;;;;;;25.20;34.36;100552.63;4215810;28;20010;-57
2023/11/07 00:21:58;;;;;;;;;;;;;;;25.19;34.10;100559.06;4215925;28;19930;-57
2023/11/07 00:24:00;;;;;;;;;;;;;;;25.22;34.05;100563.28;4215997;28;20424;-57
2023/11/07 00:26:02;;;;;;;;;;;;;;;25.21;34.12;100562.41;4215946;28;19928;-57
2023/11/07 00:28:05;;;;;;;;;;;;;;;25.21;34.20;100557.03;4216085;28;19928;-59
2023/11/07 00:30:07;;;;;;;;;;;;;;;25.23;34.06;100560.41;4215912;28;20335;-58
2023/11/07 00:32:08;;;;;;;;;;;;;;;25.24;34.13;100561.25;4215844;28;19970;-58
2023/11/07 00:34:10;;;;;;;;;;;;;;;25.24;34.13;100566.63;4197576;28;19995;-57
2023/11/07 00:36:12;;;;;;;;;;;;;;;25.24;33.97;100562.13;4216110;28;19928;-58
2023/11/07 00:38:13;;;;;;;;;;;;;;;25.24;34.11;100572.03;4215805;28;19977;-57
2023/11/07 00:40:14;;;;;;;;;;;;;;;25.22;34.12;100568.66;4215990;28;19924;-56
2023/11/07 00:42:16;;;;;;;;;;;;;;;25.22;34.23;100568.66;4215589;28;19924;-57
2023/11/07 00:44:18;;;;;;;;;;;;;;;25.20;34.51;100569.66;4215793;28;19924;-57
2023/11/07 00:46:19;;;;;;;;;;;;;;;25.19;34.24;100584.09;4215524;28;19924;-57
2023/11/07 00:48:21;;;;;;;;;;;;;;;25.20;34.20;100583.09;4215080;28;19924;-56
2023/11/07 00:50:23;;;;;;;;;;;;;;;25.22;34.17;100577.56;4215246;28;19924;-57
2023/11/07 00:52:24;;;;;;;;;;;;;;;25.23;34.50;100584.66;4215555;28;19931;-57
2023/11/07 00:54:27;;;;;;;;;;;;;;;25.25;34.15;100579.09;4215486;28;19924;-56
2023/11/07 00:56:28;;;;;;;;;;;;;;;25.25;34.09;100585.34;4215749;28;19931;-56
2023/11/07 00:58:30;;;;;;;;;;;;;;;25.25;33.99;100581.78;4215824;28;20016;-56
2023/11/07 01:00:33;;;;;;;;;;;;;;;25.26;34.07;100586.19;4215122;28;19928;-56
2023/11/07 01:02:36;;;;;;;;;;;;;;;25.26;34.14;100591.56;4215425;28;19928;-57
2023/11/07 01:04:37;;;;;;;;;;;;;;;25.24;34.10;100588.16;4215037;28;19924;-56
2023/11/07 01:06:39;;;;;;;;;;;;;;;25.23;34.29;100592.72;4215487;28;19932;-56
2023/11/07 01:08:41;;;;;;;;;;;;;;;25.22;34.35;100587.50;4215272;28;19928;-56
2023/11/07 01:10:42;;;;;;;;;;;;;;;25.23;34.03;100595.41;4215266;28;20030;-59
2023/11/07 01:12:44;;;;;;;;;;;;;;;25.24;34.20;100597.09;4215049;28;19924;-56
2023/11/07 01:14:45;;;;;;;;;;;;;;;25.25;34.27;100593.41;4215026;28;19924;-55
2023/11/07 01:16:47;;;;;;;;;;;;;;;25.26;34.34;100594.25;4215113;28;19969;-57
2023/11/07 01:18:48;;;;;;;;;;;;;;;25.27;34.28;100602.16;4214677;28;19953;-56
2023/11/07 01:20:50;;;;;;;;;;;;;;;25.27;34.01;100599.47;4214980;28;20348;-56
2023/11/07 01:22:51;;;;;;;;;;;;;;;25.26;34.24;100600.47;4197093;28;19990;-55
2023/11/07 01:24:53;;;;;;;;;;;;;;;25.26;34.12;100605.03;4215082;28;20310;-57
2023/11/07 01:26:55;;;;;;;;;;;;;;;25.26;34.43;100610.41;4215050;28;20003;-56
2023/11/07 01:28:56;;;;;;;;;;;;;;;25.23;34.20;100606.19;4214979;28;20388;-57
2023/11/07 01:30:58;;;;;;;;;;;;;;;25.23;34.09;100610.72;4214907;28;20272;-57
2023/11/07 01:32:59;;;;;;;;;;;;;;;25.24;34.14;100623.16;4214664;28;19930;-56
2023/11/07 01:35:01;;;;;;;;;;;;;;;25.26;34.02;100629.25;4214771;28;19977;-58
2023/11/07 01:37:02;;;;;;;;;;;;;;;25.26;34.37;100627.38;4214933;28;19951;-57
2023/11/07 01:39:05;;;;;;;;;;;;;;;25.28;33.94;100616.50;4214802;28;20448;-57
2023/11/07 01:41:07;;;;;;;;;;;;;;;25.28;34.17;100625.41;4214795;28;20377;-57
2023/11/07 01:43:12;;;;;;;;;;;;;;;25.29;33.87;100618.19;4215099;28;20082;-57
2023/11/07 01:45:14;;;;;;;;;;;;;;;25.29;34.21;100620.88;4214077;28;20073;-58
2023/11/07 01:47:20;;;;;;;;;;;;;;;25.28;34.24;100627.25;4214242;28;20019;-58
2023/11/07 01:49:23;;;;;;;;;;;;;;;25.27;34.07;100625.56;4214522;28;19968;-58
2023/11/07 01:51:25;;;;;;;;;;;;;;;25.25;34.02;100624.84;4214717;28;19931;-57
2023/11/07 01:53:28;;;;;;;;;;;;;;;25.24;34.09;100620.47;4214483;28;19959;-56
2023/11/07 01:55:30;;;;;;;;;;;;;;;25.25;34.05;100622.16;4214713;28;19993;-57
2023/11/07 01:57:32;;;;;;;;;;;;;;;25.24;34.02;100621.34;4214371;28;19924;-58
2023/11/07 01:59:33;;;;;;;;;;;;;;;25.26;33.94;100622.00;4214484;28;19924;-57
2023/11/07 02:01:36;;;;;;;;;;;;;;;25.26;34.30;100619.31;4214117;28;19924;-56
2023/11/07 02:03:38;;;;;;;;;;;;;;;25.28;34.01;100632.63;4214254;28;19924;-57
2023/11/07 02:05:42;;;;;;;;;;;;;;;25.28;34.18;100635.34;4214510;28;20420;-58
2023/11/07 02:07:44;;;;;;;;;;;;;;;25.28;33.82;100640.72;4214126;28;19924;-57
2023/11/07 02:09:46;;;;;;;;;;;;;;;25.28;33.90;100646.09;4196136;28;19924;-56
2023/11/07 02:11:47;;;;;;;;;;;;;;;25.27;33.98;100647.09;4214442;28;19924;-57
2023/11/07 02:13:49;;;;;;;;;;;;;;;25.24;33.83;100650.94;4214296;28;19924;-57
2023/11/07 02:15:54;;;;;;;;;;;;;;;25.22;33.81;100644.03;4213741;28;19924;-56
2023/11/07 02:17:56;;;;;;;;;;;;;;;25.19;33.98;100640.63;4213909;28;19959;-56
2023/11/07 02:19:58;;;;;;;;;;;;;;;25.20;33.93;100642.31;4214045;28;20322;-57
2023/11/07 02:22:00;;;;;;;;;;;;;;;25.23;34.03;100643.03;4214165;28;20324;-56
2023/11/07 02:24:02;;;;;;;;;;;;;;;25.23;34.09;100657.31;4214041;28;19950;-57
2023/11/07 02:26:04;;;;;;;;;;;;;;;25.25;33.73;100649.94;4214108;28;19947;-58
2023/11/07 02:28:06;;;;;;;;;;;;;;;25.25;33.78;100654.47;4214147;28;20337;-57
2023/11/07 02:30:12;;;;;;;;;;;;;;;25.25;34.14;100655.34;4213486;28;19989;-57
2023/11/07 02:32:15;;;;;;;;;;;;;;;25.25;33.93;100655.34;4213901;28;19931;-57
2023/11/07 02:34:16;;;;;;;;;;;;;;;25.23;33.67;100661.88;4213736;28;19924;-57
2023/11/07 02:36:18;;;;;;;;;;;;;;;25.14;33.84;100651.00;4213874;28;20005;-57
2023/11/07 02:38:22;;;;;;;;;;;;;;;25.19;33.79;100659.47;4214048;28;19928;-57
2023/11/07 02:40:24;;;;;;;;;;;;;;;25.19;33.71;100669.41;4213964;28;19924;-56
2023/11/07 02:42:29;;;;;;;;;;;;;;;25.17;33.82;100664.16;4213997;28;19924;-57
2023/11/07 02:44:31;;;;;;;;;;;;;;;25.19;33.88;100662.16;4213614;28;20361;-57
2023/11/07 02:46:32;;;;;;;;;;;;;;;25.21;33.67;100672.75;4213824;28;20027;-58
2023/11/07 02:48:34;;;;;;;;;;;;;;;25.23;33.73;100669.94;4213958;28;20330;-57
2023/11/07 02:50:36;;;;;;;;;;;;;;;25.23;33.95;100670.78;4213607;28;19950;-57
2023/11/07 02:52:38;;;;;;;;;;;;;;;25.23;33.54;100669.94;4213798;28;19939;-58
2023/11/07 02:54:39;;;;;;;;;;;;;;;25.22;33.50;100671.75;4213747;28;19946;-57
2023/11/07 02:56:42;;;;;;;;;;;;;;;25.21;33.96;100672.75;4213035;28;20425;-57
2023/11/07 02:58:44;;;;;;;;;;;;;;;25.19;33.61;100664.00;4213369;28;19928;-58
2023/11/07 03:00:45;;;;;;;;;;;;;;;25.18;33.63;100665.00;4213294;28;19932;-57
2023/11/07 03:02:48;;;;;;;;;;;;;;;25.17;33.72;100666.00;4195825;28;20424;-58
2023/11/07 03:04:51;;;;;;;;;;;;;;;25.16;34.07;100661.63;4213629;28;19924;-58
2023/11/07 03:06:53;;;;;;;;;;;;;;;25.16;33.99;100659.75;4213908;28;19928;-58
2023/11/07 03:08:55;;;;;;;;;;;;;;;25.18;33.75;100667.69;4213609;28;20019;-58
2023/11/07 03:10:57;;;;;;;;;;;;;;;25.18;33.74;100665.84;4213732;28;19955;-58
2023/11/07 03:13:01;;;;;;;;;;;;;;;25.19;33.49;100664.84;4213754;28;19932;-58
2023/11/07 03:15:03;;;;;;;;;;;;;;;25.22;33.56;100665.56;4213081;28;20007;-58
2023/11/07 03:17:06;;;;;;;;;;;;;;;25.20;33.61;100663.84;4213628;28;19924;-58
2023/11/07 03:19:08;;;;;;;;;;;;;;;25.19;33.65;100661.31;4213440;28;19924;-57
2023/11/07 03:21:10;;;;;;;;;;;;;;;25.17;33.51;100660.63;4213711;28;19970;-56
2023/11/07 03:23:11;;;;;;;;;;;;;;;25.14;33.60;100664.47;4213384;28;20015;-57
2023/11/07 03:25:13;;;;;;;;;;;;;;;25.14;33.55;100660.91;4213283;28;20019;-57
2023/11/07 03:27:15;;;;;;;;;;;;;;;25.15;33.50;100670.69;4213384;28;19935;-57
2023/11/07 03:29:17;;;;;;;;;;;;;;;25.16;33.54;100669.69;4213215;28;20357;-57
2023/11/07 03:31:18;;;;;;;;;;;;;;;25.16;33.62;100667.81;4213449;28;19924;-57
2023/11/07 03:33:20;;;;;;;;;;;;;;;25.18;33.92;100673.91;4213355;28;19930;-56
2023/11/07 03:35:23;;;;;;;;;;;;;;;25.19;33.70;100669.41;4213355;28;19924;-57
2023/11/07 03:37:24;;;;;;;;;;;;;;;25.18;33.88;100673.91;4213405;28;20018;-57
2023/11/07 03:39:26;;;;;;;;;;;;;;;25.19;33.63;100672.09;4213292;28;19993;-57
2023/11/07 03:41:28;;;;;;;;;;;;;;;25.18;33.74;100673.91;4213320;28;19931;-57
2023/11/07 03:43:30;;;;;;;;;;;;;;;25.17;33.57;100674.91;4212702;28;19931;-57
2023/11/07 03:45:32;;;;;;;;;;;;;;;25.16;33.62;100670.53;4195527;28;19925;-57
2023/11/07 03:47:34;;;;;;;;;;;;;;;25.13;33.83;100678.91;4213409;28;19966;-57
2023/11/07 03:49:36;;;;;;;;;;;;;;;25.14;33.60;100671.66;4212975;28;19930;-57
2023/11/07 03:51:38;;;;;;;;;;;;;;;25.16;33.82;100680.44;4213433;28;19924;-57
2023/11/07 03:53:39;;;;;;;;;;;;;;;25.16;33.54;100675.91;4213151;28;19925;-57
2023/11/07 03:55:41;;;;;;;;;;;;;;;25.16;33.86;100678.59;4213053;28;20084;-57
2023/11/07 03:57:42;;;;;;;;;;;;;;;25.16;33.44;100673.22;4212929;28;20396;-57
2023/11/07 03:59:45;;;;;;;;;;;;;;;25.18;33.39;100690.06;4213131;28;20015;-57
2023/11/07 04:01:46;;;;;;;;;;;;;;;25.18;33.31;100690.06;4213236;28;19924;-57
2023/11/07 04:03:48;;;;;;;;;;;;;;;25.17;33.49;100685.69;4213221;28;19924;-57
2023/11/07 04:05:49;;;;;;;;;;;;;;;25.15;33.42;100694.91;4213181;28;19924;-57
2023/11/07 04:07:51;;;;;;;;;;;;;;;25.14;33.36;100693.19;4212872;28;19960;-56
2023/11/07 04:09:53;;;;;;;;;;;;;;;25.12;33.46;100690.66;4216180;28;19963;-55
2023/11/07 04:11:54;;;;;;;;;;;;;;;25.11;33.80;100693.53;4215931;28;20389;-56
2023/11/07 04:13:56;;;;;;;;;;;;;;;25.12;33.40;100690.66;4215905;28;19978;-57
2023/11/07 04:15:58;;;;;;;;;;;;;;;25.13;33.55;100689.69;4198176;28;20133;-57
2023/11/07 04:18:00;;;;;;;;;;;;;;;25.14;33.45;100698.59;4216073;28;19977;-57
2023/11/07 04:20:02;;;;;;;;;;;;;;;25.16;33.39;100696.59;4216053;28;19931;-57
2023/11/07 04:22:04;;;;;;;;;;;;;;;25.17;33.37;100703.69;4198091;28;20331;-59
2023/11/07 04:24:06;;;;;;;;;;;;;;;25.17;33.23;100706.38;4215944;28;19928;-57
2023/11/07 04:26:10;;;;;;;;;;;;;;;25.16;33.32;100705.50;4215708;28;19923;-57
2023/11/07 04:28:12;;;;;;;;;;;;;;;25.15;33.27;100720.00;4215719;28;19967;-57
2023/11/07 04:30:13;;;;;;;;;;;;;;;25.13;33.25;100718.41;4215910;28;20023;-57
2023/11/07 04:32:15;;;;;;;;;;;;;;;25.11;33.31;100720.44;4215817;28;20229;-57
2023/11/07 04:34:17;;;;;;;;;;;;;;;25.10;33.42;100719.56;4215830;28;19931;-57
2023/11/07 04:36:18;;;;;;;;;;;;;;;25.10;33.23;100727.63;4215941;28;20414;-57
2023/11/07 04:38:20;;;;;;;;;;;;;;;25.11;33.43;100717.75;4197749;28;19973;-57
2023/11/07 04:40:22;;;;;;;;;;;;;;;25.11;33.30;100721.25;4215327;28;19931;-57
2023/11/07 04:42:23;;;;;;;;;;;;;;;25.14;33.29;100728.19;4215654;28;20030;-57
2023/11/07 04:44:25;;;;;;;;;;;;;;;25.15;33.22;100719.13;4215636;28;19930;-57
2023/11/07 04:46:26;;;;;;;;;;;;;;;25.17;33.22;100727.91;4215543;28;20385;-57
2023/11/07 04:48:28;;;;;;;;;;;;;;;25.15;33.20;100736.13;4215647;28;19924;-58
2023/11/07 04:50:29;;;;;;;;;;;;;;;25.14;33.38;100729.06;4215337;28;19930;-58
2023/11/07 04:52:33;;;;;;;;;;;;;;;25.13;33.41;100735.44;4197630;28;19952;-58
2023/11/07 04:54:35;;;;;;;;;;;;;;;25.12;33.37;100735.59;4215687;28;19934;-58
2023/11/07 04:56:36;;;;;;;;;;;;;;;25.11;33.48;100744.66;4215055;28;19928;-58
2023/11/07 04:58:38;;;;;;;;;;;;;;;25.11;33.31;100736.56;4215536;28;20381;-58
2023/11/07 05:00:59;;;;;;;;;;;;;;;25.11;33.50;100740.09;4215185;28;20030;-58
2023/11/07 05:03:01;;;;;;;;;;;;;;;25.11;33.20;100739.28;4215322;28;19924;-57
2023/11/07 05:05:04;;;;;;;;;;;;;;;25.13;33.22;100738.13;4215394;28;19924;-58
2023/11/07 05:07:06;;;;;;;;;;;;;;;25.14;33.17;100736.25;4215253;28;19935;-57
2023/11/07 05:09:09;;;;;;;;;;;;;;;25.14;33.15;100741.66;4215410;28;19924;-57
2023/11/07 05:11:12;;;;;;;;;;;;;;;25.12;33.29;100744.50;4214887;28;19977;-58
2023/11/07 05:13:14;;;;;;;;;;;;;;;25.12;33.31;100749.03;4215141;28;19932;-57
2023/11/07 05:15:16;;;;;;;;;;;;;;;25.10;33.49;100749.16;4197254;28;19999;-58
2023/11/07 05:17:18;;;;;;;;;;;;;;;25.07;33.20;100754.88;4197216;28;20019;-57
2023/11/07 05:19:20;;;;;;;;;;;;;;;25.06;33.26;100753.16;4214949;28;19972;-57
2023/11/07 05:21:21;;;;;;;;;;;;;;;25.07;33.14;100756.69;4214518;28;19924;-58
2023/11/07 05:23:23;;;;;;;;;;;;;;;25.07;33.20;100748.63;4215196;28;19969;-58
2023/11/07 05:25:25;;;;;;;;;;;;;;;25.09;33.20;100750.16;4214817;28;20306;-57
2023/11/07 05:27:27;;;;;;;;;;;;;;;25.10;33.16;100757.25;4215015;28;19924;-57
2023/11/07 05:29:29;;;;;;;;;;;;;;;25.12;33.13;100754.44;4214935;28;19992;-57
2023/11/07 05:31:31;;;;;;;;;;;;;;;25.11;33.46;100755.41;4215092;28;19932;-57
2023/11/07 05:33:34;;;;;;;;;;;;;;;25.10;33.06;100762.63;4214950;28;19924;-57
2023/11/07 05:35:36;;;;;;;;;;;;;;;25.10;33.04;100775.25;4214885;28;19931;-57
2023/11/07 05:37:37;;;;;;;;;;;;;;;25.07;33.42;100771.00;4214963;28;20381;-56
2023/11/07 05:39:39;;;;;;;;;;;;;;;25.04;33.03;100782.91;4214328;28;20428;-57
2023/11/07 05:41:40;;;;;;;;;;;;;;;25.04;33.12;100779.38;4214786;28;19928;-57
2023/11/07 05:43:42;;;;;;;;;;;;;;;25.03;33.15;100780.34;4214678;28;19981;-57
2023/11/07 05:45:44;;;;;;;;;;;;;;;25.04;33.09;100790.13;4214737;28;19981;-56
2023/11/07 05:47:46;;;;;;;;;;;;;;;25.05;33.09;100783.75;4214857;28;20400;-57
2023/11/07 05:49:50;;;;;;;;;;;;;;;25.07;33.21;100786.28;4214551;28;19958;-56
2023/11/07 05:51:52;;;;;;;;;;;;;;;25.07;33.18;100787.16;4214545;28;20321;-57
2023/11/07 05:53:54;;;;;;;;;;;;;;;25.08;32.97;100794.25;4214336;28;19955;-56
2023/11/07 05:55:55;;;;;;;;;;;;;;;25.09;32.97;100795.06;4214723;28;20015;-57
2023/11/07 05:57:57;;;;;;;;;;;;;;;25.07;32.97;100795.22;4214535;28;19970;-57
2023/11/07 05:59:59;;;;;;;;;;;;;;;25.06;33.24;100800.78;4214505;28;19970;-57
2023/11/07 06:02:01;;;;;;;;;;;;;;;25.04;33.08;100803.59;4196337;28;19951;-57
2023/11/07 06:04:04;;;;;;;;;;;;;;;25.02;33.19;100797.53;4214427;28;19924;-59
2023/11/07 06:06:05;;;;;;;;;;;;;;;25.01;33.04;100796.66;4214518;28;19931;-59
2023/11/07 06:08:07;;;;;;;;;;;;;;;25.02;33.26;100803.75;4214036;28;19931;-59
2023/11/07 06:10:09;;;;;;;;;;;;;;;25.03;33.08;100796.50;4214357;28;20014;-59
2023/11/07 06:12:10;;;;;;;;;;;;;;;25.04;33.15;100795.50;4196563;28;19925;-59
2023/11/07 06:14:13;;;;;;;;;;;;;;;25.05;33.10;100786.44;4214376;28;19963;-59
2023/11/07 06:16:15;;;;;;;;;;;;;;;25.07;33.17;100797.06;4214243;28;20010;-59
2023/11/07 06:18:16;;;;;;;;;;;;;;;25.06;32.83;100792.69;4214019;28;19924;-59
2023/11/07 06:20:21;;;;;;;;;;;;;;;25.06;32.94;100798.06;4214210;28;20426;-59
2023/11/07 06:22:23;;;;;;;;;;;;;;;25.04;32.86;100798.19;4213825;28;19990;-58
2023/11/07 06:24:24;;;;;;;;;;;;;;;25.01;33.20;100796.66;4214254;28;19939;-58
2023/11/07 06:26:26;;;;;;;;;;;;;;;25.00;32.97;100808.41;4214178;28;19924;-58
2023/11/07 06:28:28;;;;;;;;;;;;;;;25.00;32.97;100813.78;4214376;28;20343;-58
2023/11/07 06:30:30;;;;;;;;;;;;;;;25.00;32.92;100808.41;4214162;28;20076;-58
2023/11/07 06:32:32;;;;;;;;;;;;;;;25.02;33.15;100819.88;4214034;28;19931;-59
2023/11/07 06:34:33;;;;;;;;;;;;;;;25.02;33.11;100819.88;4196231;28;19931;-58
2023/11/07 06:36:35;;;;;;;;;;;;;;;25.03;32.93;100820.72;4214009;28;19924;-59
2023/11/07 06:38:36;;;;;;;;;;;;;;;25.04;33.19;100819.72;4214047;28;19950;-58
2023/11/07 06:40:38;;;;;;;;;;;;;;;25.06;33.13;100833.06;4196000;28;19925;-59
2023/11/07 06:42:41;;;;;;;;;;;;;;;25.06;32.95;100835.75;4213802;28;20018;-59
2023/11/07 06:44:43;;;;;;;;;;;;;;;25.04;32.83;100830.50;4213772;28;20019;-58
2023/11/07 06:46:47;;;;;;;;;;;;;;;25.02;32.78;100829.81;4213734;28;19924;-58
2023/11/07 06:48:48;;;;;;;;;;;;;;;25.01;32.66;100831.63;4213913;28;19924;-58
2023/11/07 06:50:54;;;;;;;;;;;;;;;25.01;32.88;100838.88;4213158;28;19924;-58
2023/11/07 06:52:55;;;;;;;;;;;;;;;25.01;32.89;100842.41;4213774;28;20040;-58
2023/11/07 06:54:57;;;;;;;;;;;;;;;25.01;33.08;100842.41;4213922;28;20344;-58
2023/11/07 06:56:59;;;;;;;;;;;;;;;25.01;32.71;100842.41;4213800;28;19924;-58
2023/11/07 06:59:01;;;;;;;;;;;;;;;25.03;32.75;100847.63;4213892;28;19931;-58
2023/11/07 07:01:03;;;;;;;;;;;;;;;25.03;32.80;100845.81;4213572;28;19931;-59
2023/11/07 07:03:05;;;;;;;;;;;;;;;25.03;32.85;100851.19;4213794;28;19924;-58
2023/11/07 07:05:12;;;;;;;;;;;;;;;25.03;33.11;100861.06;4213193;28;20404;-58
2023/11/07 07:07:15;;;;;;;;;;;;;;;24.99;32.60;100857.84;4213451;28;19941;-58
2023/11/07 07:09:18;;;;;;;;;;;;;;;24.98;32.75;100863.38;4213791;28;19967;-58
2023/11/07 07:11:20;;;;;;;;;;;;;;;24.95;32.94;100859.13;4213541;28;20014;-58
2023/11/07 07:13:24;;;;;;;;;;;;;;;24.93;32.75;100873.72;4213544;28;20007;-58
2023/11/07 07:15:25;;;;;;;;;;;;;;;24.92;33.09;100863.94;4213489;28;19974;-58
2023/11/07 07:17:27;;;;;;;;;;;;;;;24.91;33.03;100864.94;4213294;28;19924;-58
2023/11/07 07:19:29;;;;;;;;;;;;;;;24.91;32.68;100862.25;4213721;28;20361;-58
2023/11/07 07:21:30;;;;;;;;;;;;;;;24.92;32.96;100867.47;4213323;28;20002;-59
2023/11/07 07:23:36;;;;;;;;;;;;;;;24.94;32.84;100867.34;4213523;28;19924;-59
2023/11/07 07:25:37;;;;;;;;;;;;;;;24.94;32.93;100870.03;4213737;28;20288;-58
2023/11/07 07:27:44;;;;;;;;;;;;;;;24.88;32.80;100866.09;4213546;28;19947;-58
2023/11/07 07:29:46;;;;;;;;;;;;;;;24.94;32.64;100884.34;4213590;28;20282;-58
2023/11/07 07:31:47;;;;;;;;;;;;;;;24.94;33.08;100878.94;4213658;28;19924;-58
2023/11/07 07:33:49;;;;;;;;;;;;;;;24.92;32.99;100880.94;4213381;28;20305;-58
2023/11/07 07:35:50;;;;;;;;;;;;;;;24.91;32.90;100886.47;4213098;28;19932;-58
2023/11/07 07:37:52;;;;;;;;;;;;;;;24.90;32.73;100888.31;4213589;28;20425;-58
2023/11/07 07:39:55;;;;;;;;;;;;;;;24.91;32.93;100881.94;4213370;28;19928;-58
2023/11/07 07:41:57;;;;;;;;;;;;;;;24.91;32.54;100887.31;4213429;28;20336;-58
2023/11/07 07:44:01;;;;;;;;;;;;;;;24.92;32.63;100898.94;4197417;28;19932;-58
2023/11/07 07:46:07;;;;;;;;;;;;;;;24.92;32.58;100894.38;4216902;28;19939;-58
2023/11/07 07:48:10;;;;;;;;;;;;;;;24.94;32.45;100905.03;4216511;28;19993;-59
2023/11/07 07:50:12;;;;;;;;;;;;;;;24.94;32.66;100915.78;4216099;28;19981;-58
2023/11/07 07:52:15;;;;;;;;;;;;;;;24.92;32.61;100907.00;4216563;28;19996;-58
2023/11/07 07:54:22;;;;;;;;;;;;;;;24.91;32.81;100916.94;4216574;28;19975;-58
2023/11/07 07:56:47;;;;;;;;;;;;;;;24.89;32.84;100921.59;4216543;28;20042;-58
2023/11/07 07:58:49;;;;;;;;;;;;;;;24.87;32.70;100923.56;4216559;28;19924;-58
2023/11/07 08:00:52;;;;;;;;;;;;;;;24.87;32.46;100921.75;4198485;28;19924;-57
2023/11/07 08:02:54;;;;;;;;;;;;;;;24.87;32.82;100920.88;4216418;28;19946;-58
2023/11/07 08:04:56;;;;;;;;;;;;;;;24.87;32.84;100923.56;4216046;28;19971;-58
2023/11/07 08:06:58;;;;;;;;;;;;;;;24.90;32.53;100927.81;4216639;28;19931;-58
2023/11/07 08:08:59;;;;;;;;;;;;;;;24.91;32.54;100934.88;4216192;28;20007;-59
2023/11/07 08:11:01;;;;;;;;;;;;;;;24.92;32.79;100933.91;4216083;28;19924;-58
2023/11/07 08:13:06;;;;;;;;;;;;;;;24.93;32.83;100932.91;4216140;28;19931;-61
2023/11/07 08:15:13;;;;;;;;;;;;;;;24.92;32.75;100939.28;4216417;28;19931;-59
2023/11/07 08:17:14;;;;;;;;;;;;;;;24.92;32.54;100939.28;4216240;28;19974;-58
2023/11/07 08:19:17;;;;;;;;;;;;;;;24.89;32.73;100937.72;4197794;28;19947;-59
2023/11/07 08:21:21;;;;;;;;;;;;;;;24.86;32.77;100938.88;4215883;28;19924;-58
2023/11/07 08:23:22;;;;;;;;;;;;;;;24.85;32.51;100939.84;4216137;28;19924;-59
2023/11/07 08:25:24;;;;;;;;;;;;;;;24.87;32.46;100948.66;4215889;28;19924;-59
2023/11/07 08:27:25;;;;;;;;;;;;;;;24.88;32.41;100944.94;4216110;28;19924;-59
2023/11/07 08:29:29;;;;;;;;;;;;;;;24.91;32.64;100942.97;4215936;28;19994;-58
2023/11/07 08:31:30;;;;;;;;;;;;;;;24.91;32.45;100941.13;4215966;28;19948;-59
2023/11/07 08:33:32;;;;;;;;;;;;;;;24.91;32.42;100942.97;4215749;28;19952;-58
2023/11/07 08:35:34;;;;;;;;;;;;;;;24.91;32.58;100942.97;4216034;28;19924;-58
2023/11/07 08:37:36;;;;;;;;;;;;;;;24.90;32.35;100941.25;4215785;28;19924;-59
2023/11/07 08:39:40;;;;;;;;;;;;;;;24.90;32.38;100952.03;4215899;28;19959;-58
2023/11/07 08:41:43;;;;;;;;;;;;;;;24.87;32.73;100948.66;4215763;28;19924;-58
2023/11/07 08:43:45;;;;;;;;;;;;;;;24.86;32.44;100960.38;4215972;28;20023;-58
2023/11/07 08:45:47;;;;;;;;;;;;;;;24.85;32.74;100957.84;4215821;28;19928;-58
2023/11/07 08:47:54;;;;;;;;;;;;;;;24.85;32.50;100960.53;4215553;28;19924;-56
2023/11/07 08:49:57;;;;;;;;;;;;;;;24.89;32.44;100959.25;4215640;28;20011;-56
2023/11/07 08:51:59;;;;;;;;;;;;;;;24.92;32.36;100966.19;4215404;28;20390;-57
2023/11/07 08:54:00;;;;;;;;;;;;;;;24.94;32.59;100964.22;4180924;28;20023;-57
2023/11/07 08:56:03;;;;;;;;;;;;;;;24.96;32.67;100964.91;4214514;28;19924;-57
2023/11/07 08:58:05;;;;;;;;;;;;;;;24.95;32.35;100964.06;4215659;28;19924;-57
2023/11/07 09:00:08;;;;;;;;;;;;;;;24.95;32.37;100958.69;4215525;28;20343;-57
2023/11/07 09:02:11;;;;;;;;;;;;;;;24.95;32.29;100963.22;4215164;28;20301;-57
2023/11/07 09:04:13;;;;;;;;;;;;;;;24.93;32.41;100966.03;4196933;28;20007;-57
2023/11/07 09:06:14;;;;;;;;;;;;;;;24.92;32.70;100972.41;4215141;28;19981;-57
2023/11/07 09:08:17;;;;;;;;;;;;;;;24.91;32.34;100973.41;4215198;28;19931;-57
2023/11/07 09:10:20;;;;;;;;;;;;;;;24.91;32.53;100980.63;4197397;28;19928;-59
2023/11/07 09:12:22;;;;;;;;;;;;;;;24.89;32.25;100972.72;4215438;28;20365;-57
2023/11/07 09:14:23;;;;;;;;;;;;;;;24.89;32.22;100978.09;4215342;28;19946;-56
2023/11/07 09:16:25;;;;;;;;;;;;;;;24.86;32.17;100987.28;4214916;28;19924;-57
2023/11/07 09:18:27;;;;;;;;;;;;;;;24.85;32.11;100990.97;4215053;28;19924;-56
2023/11/07 09:20:28;;;;;;;;;;;;;;;24.83;31.97;100984.03;4215112;28;19969;-56
2023/11/07 09:22:30;;;;;;;;;;;;;;;24.82;32.07;100990.41;4215340;28;19978;-57
2023/11/07 09:24:32;;;;;;;;;;;;;;;24.75;32.19;100991.97;4215130;28;19970;-56
2023/11/07 09:26:33;;;;;;;;;;;;;;;24.72;32.43;100988.53;4215150;28;20323;-55
2023/11/07 09:28:35;;;;;;;;;;;;;;;24.69;32.17;100994.22;4215272;28;19970;-55
2023/11/07 09:30:36;;;;;;;;;;;;;;;24.70;32.00;100997.75;4214745;28;20344;-56
2023/11/07 09:32:39;;;;;;;;;;;;;;;24.67;31.96;100995.34;4214869;28;19928;-57
2023/11/07 09:34:41;;;;;;;;;;;;;;;24.67;32.26;100996.19;4214882;28;19924;-56
2023/11/07 09:36:42;;;;;;;;;;;;;;;24.69;31.87;100998.72;4215024;28;19928;-57
2023/11/07 09:38:44;;;;;;;;;;;;;;;24.70;32.11;100995.94;4214978;28;19924;-56
2023/11/07 09:40:53;;;;;;;;;;;;;;;24.69;31.91;100993.34;4214727;28;20015;-57
2023/11/07 09:42:55;;;;;;;;;;;;;;;24.69;31.79;100998.72;4214863;28;19924;-56
2023/11/07 09:44:58;;;;;;;;;;;;;;;24.66;32.15;100999.88;4214608;28;19932;-57
2023/11/07 09:46:59;;;;;;;;;;;;;;;24.63;31.96;101005.50;4214714;28;19924;-57
2023/11/07 09:49:01;;;;;;;;;;;;;;;24.61;31.93;101001.28;4214740;28;19924;-56
2023/11/07 09:51:04;;;;;;;;;;;;;;;24.58;32.11;101015.81;4214968;28;19959;-57
2023/11/07 09:53:07;;;;;;;;;;;;;;;24.56;32.05;101012.44;4214676;28;20312;-59
2023/11/07 09:55:10;;;;;;;;;;;;;;;24.55;32.18;101019.63;4214668;28;19924;-57
2023/11/07 09:57:13;;;;;;;;;;;;;;;24.45;31.92;101010.72;4214519;28;20028;-56
2023/11/07 09:59:25;;;;;;;;;;;;;;;24.55;32.08;101027.69;4214351;28;19928;-57
2023/11/07 10:01:27;;;;;;;;;;;;;;;24.58;31.86;101023.03;4214371;28;19928;-57
2023/11/07 10:03:30;;;;;;;;;;;;;;;24.59;31.94;101027.44;4214520;28;19939;-57
2023/11/07 10:05:35;;;;;;;;;;;;;;;24.59;31.86;101027.44;4214389;28;19924;-56
2023/11/07 10:07:36;;;;;;;;;;;;;;;24.59;31.81;101030.13;4214261;28;20385;-57
2023/11/07 10:09:38;;;;;;;;;;;;;;;24.57;32.11;101032.97;4214634;28;20015;-56
2023/11/07 10:11:43;;;;;;;;;;;;;;;24.54;31.89;101022.47;4214407;28;20432;-56
2023/11/07 10:14:05;;;;;;;;;;;;;;;24.52;31.81;101022.63;4214176;28;19931;-57
2023/11/07 10:16:08;;;;;;;;;;;;;;;24.52;32.06;101019.06;4213074;28;20282;-57
2023/11/07 10:18:12;;;;;;;;;;;;;;;24.51;32.09;101026.28;4214066;28;19930;-57
2023/11/07 10:20:14;;;;;;;;;;;;;;;24.51;31.89;101025.41;4214448;28;19967;-56
2023/11/07 10:22:16;;;;;;;;;;;;;;;24.52;31.82;101027.13;4214349;28;19928;-56
2023/11/07 10:24:18;;;;;;;;;;;;;;;24.53;31.72;101028.84;4214109;28;20318;-56
2023/11/07 10:26:19;;;;;;;;;;;;;;;24.53;31.78;101020.75;4214212;28;20404;-57
2023/11/07 10:28:21;;;;;;;;;;;;;;;24.54;31.87;101022.47;4213573;28;19963;-56